Pagrindinis puslapis
METAR-TAF:

METAR-TAF

Oro uostai :

Cordova, Aliaska, Jungtinės Amerikos Valstijos

platuma: 60-29-30N, ilguma: 145-28-40W, Aukštis: 13 m

Dabartinis oras

Ataskaita buvo paskelbta 18 minutes, ne 18:25 UTC
Ramus vėjas
Temperatūra -11°C
Drėgmė 85%
Slėgis 1012 hPa
Matomumas: 4.8 km
Mažai debesys ne aukštis 200 ft
Išsisklaidę debesys ne aukštis 6000 ft
Su prošvaistėmis ne aukštis 12000 ft
rūkana

METAR: PACV 161825Z 00000KT 3SM R27/1200VP6000FT BR FEW002 SCT060 BKN120 M11/M13 A2987 RMK AO2 T11061128

Laikas: 09:43 (18:43 UTC)

Prognozė

Ataskaita buvo paskelbta 1 valandą ir 22 minutes, ne 17:21 UTC
Prognozė galioja nuo 16 metu 18 UTC su 17 metu 18 UTC
Vėjas 3 kt nuo kintamojo kryptimis
Matomumas: 10 km
Išsisklaidę debesys ne aukštis 6000 ft
Su prošvaistėmis ne aukštis 12000 ft
Nuo 17 metu 1200 UTC
Vėjas 10 kt iš Rytų
Matomumas: 9.7 km
Apsiniaukę ne aukštis 3500 ft
lietus, sniegas

TAF: PACV 161721Z 1618/1718 VRB03KT P6SM SCT060 BKN120 FM171200 10010KT 6SM -RASN OVC035

Orai ataskaitas ir orų prognozės (METAR, TAF).

turimą stotys yra geltonos ir raudonos taškus žemėlapyje.

Perkelti pele per norėdami pamatyti stoties vardą.

Tada spustelėkite, norėdami matyti oro stebėjimo ir prognozės.

Norėdami pakeisti žemėlapį: spustelėkite ant žalios mygtukų su juodo kryžiaus žemyn,; žalią mygtuką su brūkšneliu, jei norite nutolinti; arba žalių rodyklių gretimoms žemėlapius.


METAR-TAF: